Aéroport int. Stanfield de Halifax, Nouvelle Écosse

Conditions des dernières 24 heures

Ce tableau est un sommaire des conditions météo couvrant les dernières 24 heures. Ce sommaire inclut les paramètres suivants: température, humidité, point de rosée, direction et vitesse du vent, pression barométrique, facteur de refroidissement éolien ou indice humidex.
Date / Heure
(HAA)
Conditions Temp (°C) Humidite (%) Point de rose (°C) Vent (km/h) Pression (kPa) Visibilité (km)
01 octobre 2014
4:00 Brume 13 98 13 ESE 7 101,8 3
3:00 Brume 13 98 13 SSE 6 101,8 2
2:00 Brouillard 14 98 14 N 2 101,9 0.8
1:00 Généralement nuageux 14 97 13 N 3 101,9 24
0:00 Généralement nuageux 14 96 13 calme 101,9 24
30 septembre 2014
23:00 Généralement nuageux 14 95 13 calme 101,9 24
22:00 Généralement nuageux 14 95 13 SE 7 101,9 24
21:00 Généralement nuageux 14 94 13 N 2 101,9 24
20:00 Généralement nuageux 14 94 13 NNE 5 101,8 24
19:00 Nuageux 15 91 13 E 4 101,8 24
18:00 Généralement nuageux 15 90 14 ESE 11 101,8 24
17:00 Généralement nuageux 15 89 14 SE 8 101,8 24
16:00 Nuageux 16   87 13 SE 13 101,8 24
15:00 Nuageux 15 91 14 SE 12 101,8 24
14:00 Nuageux 15 90 13 SE 16 101,8 24
13:00 Nuageux 14 94 13 ESE 11 101,9 16
12:00 Brume 13 96 13 ESE 18 rafale 32 101,9 5
11:00 Bruine faible 12 98 12 ESE 14 101,9 1
10:00 Faible averse de pluie 11 97 11 E 16 102,0 3
9:00 Brume 11 97 10 ESE 12 102,0 5
8:00 Brume 10 97 10 ESE 10 102,0 5
7:00 Brume 10 97 9 E 14 102,0 5
6:00 Bruine faible 9   97 9 NE 9 101,9 2
5:00 Brume 9   95 8 ENE 11 102,0 5
4:00 Bruine faible 9   91 8 NE 13 102,0 11
N.D.
non disponible
 ↑ 
température la plus haute
 ↓ 
température la plus basse

Si vous désirez plus de données historiques sur les conditions météo, s.v.p. visitez Données climatologiques en ligne.